createdAt,value
2017-09-09T00:00:19.760Z,0
2017-09-09T00:01:00.299Z,0
2017-09-09T00:01:40.829Z,0
2017-09-09T00:02:21.363Z,0
2017-09-09T00:03:01.896Z,0
2017-09-09T00:03:42.417Z,0
2017-09-09T00:04:22.952Z,0
2017-09-09T00:05:03.487Z,0
2017-09-09T00:05:44.013Z,0
2017-09-09T00:06:24.551Z,0
2017-09-09T00:07:05.075Z,0
2017-09-09T00:07:45.606Z,0
2017-09-09T00:08:26.155Z,0
2017-09-09T00:09:06.673Z,0
2017-09-09T00:09:47.194Z,0
2017-09-09T00:10:27.728Z,0
2017-09-09T00:11:08.258Z,0
2017-09-09T00:11:48.784Z,0
2017-09-09T00:12:29.306Z,0
2017-09-09T00:13:09.828Z,0
2017-09-09T00:13:50.355Z,0
2017-09-09T00:14:30.880Z,0
2017-09-09T00:15:11.421Z,0
2017-09-09T00:15:51.955Z,0
2017-09-09T00:16:32.483Z,0
2017-09-09T00:17:13.012Z,0
2017-09-09T00:17:53.548Z,0
2017-09-09T00:18:34.079Z,0
2017-09-09T00:19:14.620Z,0
2017-09-09T00:19:55.153Z,0
2017-09-09T00:20:42.620Z,0
2017-09-09T00:21:23.137Z,0
2017-09-09T00:22:03.679Z,0
2017-09-09T00:22:44.219Z,0
2017-09-09T00:23:24.758Z,0
2017-09-09T00:24:05.297Z,0
2017-09-09T00:24:45.818Z,0
2017-09-09T00:25:26.339Z,0
2017-09-09T00:26:06.869Z,0
2017-09-09T00:26:47.410Z,0
2017-09-09T00:27:27.937Z,0
2017-09-09T00:28:08.466Z,0
2017-09-09T00:28:48.994Z,0
2017-09-09T00:29:29.527Z,0
2017-09-09T00:30:10.053Z,0
2017-09-09T00:30:50.608Z,0
2017-09-09T00:31:31.142Z,0
2017-09-09T00:32:11.664Z,0
2017-09-09T00:32:52.201Z,0
2017-09-09T00:33:32.738Z,0
2017-09-09T00:34:13.278Z,0
2017-09-09T00:34:53.806Z,0
2017-09-09T00:35:34.338Z,0
2017-09-09T00:36:14.870Z,0
2017-09-09T00:36:55.382Z,0
2017-09-09T00:37:35.921Z,0
2017-09-09T00:38:16.444Z,0
2017-09-09T00:38:56.978Z,0
2017-09-09T00:39:37.514Z,0
2017-09-09T00:40:18.036Z,0
2017-09-09T00:40:58.584Z,0
2017-09-09T00:41:39.125Z,0
2017-09-09T00:42:19.638Z,0
2017-09-09T00:43:00.160Z,0
2017-09-09T00:43:40.695Z,0
2017-09-09T00:44:21.242Z,0
2017-09-09T00:45:01.782Z,0
2017-09-09T00:45:42.304Z,0
2017-09-09T00:46:22.820Z,0
2017-09-09T00:47:03.359Z,0
2017-09-09T00:47:43.882Z,0
2017-09-09T00:48:24.397Z,0
2017-09-09T00:49:04.928Z,0
2017-09-09T00:49:45.453Z,0
2017-09-09T00:50:25.990Z,0
2017-09-09T00:51:06.531Z,0
2017-09-09T00:51:47.071Z,0
2017-09-09T00:52:27.608Z,0
2017-09-09T00:53:08.138Z,0
2017-09-09T00:53:48.674Z,0
2017-09-09T00:54:29.200Z,0
2017-09-09T00:55:09.734Z,0
2017-09-09T00:55:50.270Z,0
2017-09-09T00:56:30.787Z,0
2017-09-09T00:57:11.325Z,0
2017-09-09T00:57:51.862Z,0
2017-09-09T00:58:32.399Z,0
2017-09-09T00:59:12.931Z,0
2017-09-09T00:59:53.471Z,0
2017-09-09T01:00:33.995Z,0
2017-09-09T01:01:14.523Z,0
2017-09-09T01:01:55.055Z,0
2017-09-09T01:02:35.580Z,0
2017-09-09T01:03:16.125Z,0
2017-09-09T01:03:56.635Z,0
2017-09-09T01:04:37.174Z,0
2017-09-09T01:05:17.710Z,0
2017-09-09T01:05:58.233Z,0
2017-09-09T01:06:38.758Z,0
2017-09-09T01:07:19.282Z,0
2017-09-09T01:07:59.826Z,0
2017-09-09T01:08:40.368Z,0
2017-09-09T01:09:20.902Z,0
2017-09-09T01:10:01.446Z,0
2017-09-09T01:10:41.982Z,0
2017-09-09T01:11:22.517Z,0
2017-09-09T01:12:03.007Z,0
2017-09-09T01:12:43.532Z,0
2017-09-09T01:13:24.057Z,0
2017-09-09T01:14:04.576Z,0
2017-09-09T01:14:45.111Z,0
2017-09-09T01:15:25.644Z,0
2017-09-09T01:16:06.172Z,0
2017-09-09T01:16:46.713Z,0
2017-09-09T01:17:27.253Z,0
2017-09-09T01:18:07.792Z,0
2017-09-09T01:18:48.321Z,0
2017-09-09T01:19:28.855Z,0
2017-09-09T01:20:09.385Z,0
2017-09-09T01:20:49.916Z,0
2017-09-09T01:21:30.438Z,0
2017-09-09T01:22:10.980Z,0
2017-09-09T01:22:51.502Z,0
2017-09-09T01:23:32.039Z,0
2017-09-09T01:24:12.568Z,0
2017-09-09T01:24:53.088Z,0
2017-09-09T01:25:33.613Z,0
2017-09-09T01:26:14.147Z,0
2017-09-09T01:26:54.670Z,0
2017-09-09T01:27:35.195Z,0
2017-09-09T01:28:15.737Z,0
2017-09-09T01:28:56.261Z,0
2017-09-09T01:29:36.793Z,0
2017-09-09T01:30:17.302Z,0
2017-09-09T01:30:57.831Z,0
2017-09-09T01:31:38.381Z,0
2017-09-09T01:32:18.896Z,0
2017-09-09T01:32:59.424Z,0
2017-09-09T01:33:39.954Z,0
2017-09-09T01:34:20.474Z,0
2017-09-09T01:35:01.016Z,0
2017-09-09T01:35:41.557Z,0
2017-09-09T01:36:22.073Z,0
2017-09-09T01:37:02.619Z,0
2017-09-09T01:37:43.143Z,0
2017-09-09T01:38:23.680Z,0
2017-09-09T01:39:04.216Z,0
2017-09-09T01:39:44.741Z,0
2017-09-09T01:40:25.278Z,0
2017-09-09T01:41:05.792Z,0
2017-09-09T01:41:46.335Z,0
2017-09-09T01:42:26.872Z,0
2017-09-09T01:43:07.393Z,0
2017-09-09T01:43:47.923Z,0
2017-09-09T01:44:28.453Z,0
2017-09-09T01:45:08.982Z,0
2017-09-09T01:45:49.507Z,0
2017-09-09T01:46:30.064Z,0
2017-09-09T01:47:10.607Z,0
2017-09-09T01:47:51.139Z,0
2017-09-09T01:48:31.662Z,0
2017-09-09T01:49:12.196Z,0
2017-09-09T01:49:52.736Z,0
2017-09-09T01:50:33.259Z,0
2017-09-09T01:51:13.816Z,0
2017-09-09T01:51:54.328Z,0
2017-09-09T01:52:34.855Z,0
2017-09-09T01:53:15.386Z,0
2017-09-09T01:53:55.930Z,0
2017-09-09T01:54:36.457Z,0
2017-09-09T01:55:16.992Z,0
2017-09-09T01:55:57.508Z,0
2017-09-09T01:56:38.046Z,0
2017-09-09T01:57:18.591Z,0
2017-09-09T01:57:59.112Z,0
2017-09-09T01:58:39.671Z,0
2017-09-09T01:59:20.190Z,0
2017-09-09T02:00:00.717Z,0
2017-09-09T02:00:41.251Z,0
2017-09-09T02:01:21.781Z,0
2017-09-09T02:02:02.305Z,0
2017-09-09T02:02:42.832Z,0
2017-09-09T02:05:12.296Z,0
2017-09-09T02:05:52.819Z,0
2017-09-09T02:06:33.357Z,0
2017-09-09T02:07:13.875Z,0
2017-09-09T02:07:54.398Z,0
2017-09-09T02:08:34.912Z,0
2017-09-09T02:09:15.439Z,0
2017-09-09T02:09:55.963Z,0
2017-09-09T02:10:36.490Z,0
2017-09-09T02:11:17.024Z,0
2017-09-09T02:11:57.550Z,0
2017-09-09T02:12:38.071Z,0
2017-09-09T02:13:18.608Z,0
2017-09-09T02:13:59.142Z,0
2017-09-09T02:14:39.677Z,0
2017-09-09T02:15:20.197Z,0
2017-09-09T02:16:00.724Z,0
2017-09-09T02:16:41.258Z,0
2017-09-09T02:17:21.789Z,0
2017-09-09T02:18:02.327Z,0
2017-09-09T02:18:42.865Z,0
2017-09-09T02:19:23.397Z,0
2017-09-09T02:20:03.932Z,0
2017-09-09T02:20:44.467Z,0
2017-09-09T02:21:25.014Z,0
2017-09-09T02:22:05.549Z,0
2017-09-09T02:22:46.087Z,0
2017-09-09T02:23:26.615Z,0
2017-09-09T02:24:07.153Z,0
2017-09-09T02:24:47.686Z,0
2017-09-09T02:25:28.210Z,0
2017-09-09T02:26:08.730Z,0
2017-09-09T02:26:49.260Z,0
2017-09-09T02:27:29.766Z,0
2017-09-09T02:28:10.300Z,0
2017-09-09T02:28:50.834Z,0
2017-09-09T02:29:31.342Z,0
2017-09-09T02:30:11.870Z,0
2017-09-09T02:30:52.433Z,0
2017-09-09T02:31:32.964Z,0
2017-09-09T02:32:13.503Z,0
2017-09-09T02:32:54.042Z,0
2017-09-09T02:33:34.548Z,0
2017-09-09T02:34:15.085Z,0
2017-09-09T02:34:55.661Z,0
2017-09-09T02:35:36.175Z,0
2017-09-09T02:36:16.704Z,0
2017-09-09T02:36:57.225Z,0
2017-09-09T02:37:37.756Z,0
2017-09-09T02:38:18.286Z,0
2017-09-09T02:38:58.823Z,0
2017-09-09T02:39:39.352Z,0
2017-09-09T02:40:19.894Z,0
2017-09-09T02:41:00.413Z,0
2017-09-09T02:41:40.934Z,0
2017-09-09T02:42:21.478Z,0
2017-09-09T02:43:02.002Z,0
2017-09-09T02:43:42.542Z,0
2017-09-09T02:44:23.056Z,0
2017-09-09T02:45:03.584Z,0
2017-09-09T02:45:44.128Z,0
2017-09-09T02:46:24.656Z,0
2017-09-09T02:47:05.193Z,0
2017-09-09T02:47:45.722Z,0
2017-09-09T02:48:26.259Z,0
2017-09-09T02:49:06.805Z,0
2017-09-09T02:49:47.345Z,0
2017-09-09T02:50:27.881Z,0
2017-09-09T02:51:08.420Z,0
2017-09-09T02:51:48.958Z,0
2017-09-09T02:52:29.501Z,0
2017-09-09T02:53:10.027Z,0
2017-09-09T02:53:50.548Z,0
2017-09-09T02:54:31.079Z,0
2017-09-09T02:55:11.623Z,0
2017-09-09T02:55:52.155Z,0
2017-09-09T02:56:32.680Z,0
2017-09-09T02:57:13.203Z,0
2017-09-09T02:57:53.724Z,0
2017-09-09T02:58:34.264Z,0
2017-09-09T02:59:14.790Z,0
2017-09-09T02:59:55.343Z,0
2017-09-09T03:00:35.874Z,0
2017-09-09T03:01:16.406Z,0
2017-09-09T03:01:56.945Z,0
2017-09-09T03:02:37.478Z,0
2017-09-09T03:03:18.013Z,0
2017-09-09T03:03:58.550Z,0
2017-09-09T03:04:39.079Z,0
2017-09-09T03:05:19.617Z,0
2017-09-09T03:06:00.153Z,0
2017-09-09T03:06:40.694Z,0
2017-09-09T03:07:21.226Z,0
2017-09-09T03:08:01.761Z,0
2017-09-09T03:08:42.288Z,0
2017-09-09T03:09:22.819Z,0
2017-09-09T03:10:03.356Z,0
2017-09-09T03:10:43.896Z,0
2017-09-09T03:11:24.434Z,0
2017-09-09T03:12:04.974Z,0
2017-09-09T03:12:45.499Z,0
2017-09-09T03:13:26.032Z,0
2017-09-09T03:14:06.570Z,0
2017-09-09T03:14:47.103Z,0
2017-09-09T03:15:27.639Z,0
2017-09-09T03:16:08.180Z,0
2017-09-09T03:16:48.701Z,0
2017-09-09T03:17:29.227Z,0
2017-09-09T03:18:09.765Z,0
2017-09-09T03:18:50.347Z,0
2017-09-09T03:19:30.874Z,0
2017-09-09T03:20:11.399Z,0
2017-09-09T03:20:51.935Z,0
2017-09-09T03:21:32.474Z,0
2017-09-09T03:22:13.008Z,0
2017-09-09T03:22:53.567Z,0
2017-09-09T03:23:34.098Z,0
2017-09-09T03:24:14.606Z,0
2017-09-09T03:24:55.138Z,0
2017-09-09T03:25:35.662Z,0
2017-09-09T03:26:16.200Z,0
2017-09-09T03:26:56.732Z,0
2017-09-09T03:27:37.265Z,0
2017-09-09T03:28:17.817Z,0
2017-09-09T03:28:58.355Z,0
2017-09-09T03:29:39.065Z,0
2017-09-09T03:30:19.601Z,0
2017-09-09T03:31:00.164Z,0
2017-09-09T03:31:40.714Z,0
2017-09-09T03:32:21.246Z,0
2017-09-09T03:33:01.809Z,0
2017-09-09T03:33:42.345Z,0
2017-09-09T03:34:22.918Z,0
2017-09-09T03:35:03.421Z,0
2017-09-09T03:35:43.958Z,0
2017-09-09T03:36:24.498Z,0
2017-09-09T03:37:05.025Z,0
2017-09-09T03:37:45.560Z,0
2017-09-09T03:38:26.241Z,0
2017-09-09T03:39:06.952Z,0
2017-09-09T03:39:47.544Z,0
2017-09-09T03:40:28.049Z,0
2017-09-09T03:41:08.575Z,0
2017-09-09T03:41:49.115Z,0
2017-09-09T03:42:29.617Z,0
2017-09-09T03:43:10.143Z,0
2017-09-09T03:43:50.674Z,0
2017-09-09T03:44:31.207Z,0
2017-09-09T03:45:11.727Z,0
2017-09-09T03:45:52.259Z,0
2017-09-09T03:46:32.792Z,0
2017-09-09T03:47:13.315Z,0
2017-09-09T03:47:53.859Z,0
2017-09-09T03:48:34.419Z,0
2017-09-09T03:49:14.909Z,0
2017-09-09T03:49:55.442Z,0
2017-09-09T03:50:35.977Z,0
2017-09-09T03:51:16.523Z,0
2017-09-09T03:51:57.039Z,0
2017-09-09T03:52:37.578Z,0
2017-09-09T03:53:18.107Z,0
2017-09-09T03:53:58.644Z,0
2017-09-09T03:54:39.180Z,0
2017-09-09T03:55:19.713Z,0
2017-09-09T03:56:00.238Z,0
2017-09-09T03:56:40.768Z,0
2017-09-09T03:57:21.299Z,0
2017-09-09T03:58:01.845Z,0
2017-09-09T03:58:42.382Z,0
2017-09-09T03:59:22.912Z,0
2017-09-09T04:00:03.425Z,0
2017-09-09T04:00:43.956Z,0
2017-09-09T04:01:24.494Z,0
2017-09-09T04:02:05.035Z,0
2017-09-09T04:02:45.570Z,0
2017-09-09T04:03:26.074Z,0
2017-09-09T04:04:06.591Z,0
2017-09-09T04:04:47.156Z,0
2017-09-09T04:05:27.696Z,0
2017-09-09T04:06:08.221Z,0
2017-09-09T04:06:48.747Z,0
2017-09-09T04:07:29.251Z,0
2017-09-09T04:08:09.778Z,0
2017-09-09T04:08:50.296Z,0
2017-09-09T04:09:30.842Z,0
2017-09-09T04:10:11.387Z,0
2017-09-09T04:10:51.903Z,0
2017-09-09T04:11:32.437Z,0
2017-09-09T04:12:12.950Z,0
2017-09-09T04:12:53.470Z,0
2017-09-09T04:13:34.003Z,0
2017-09-09T04:14:14.504Z,0
2017-09-09T04:14:55.033Z,0
2017-09-09T04:15:35.551Z,0
2017-09-09T04:16:16.073Z,0
2017-09-09T04:16:56.596Z,0
2017-09-09T04:17:37.127Z,0
2017-09-09T04:18:17.650Z,0
2017-09-09T04:18:58.192Z,0
2017-09-09T04:19:38.724Z,0
2017-09-09T04:20:19.253Z,0
2017-09-09T04:20:59.783Z,0
2017-09-09T04:21:40.316Z,0
2017-09-09T04:22:20.852Z,0
2017-09-09T04:23:01.398Z,0
2017-09-09T04:23:41.926Z,0
2017-09-09T04:24:22.455Z,0
2017-09-09T04:25:02.983Z,0
2017-09-09T04:25:43.519Z,0
2017-09-09T04:26:24.052Z,0
2017-09-09T04:27:04.585Z,0
2017-09-09T04:27:45.112Z,0
2017-09-09T04:28:25.638Z,0
2017-09-09T04:29:06.156Z,0
2017-09-09T04:29:46.703Z,0
2017-09-09T04:30:27.234Z,0
2017-09-09T04:31:07.790Z,0
2017-09-09T04:31:48.291Z,0
2017-09-09T04:32:28.830Z,0
2017-09-09T04:33:09.368Z,0
2017-09-09T04:33:49.902Z,0
2017-09-09T04:34:30.435Z,0
2017-09-09T04:35:10.948Z,0
2017-09-09T04:35:51.484Z,0
2017-09-09T04:36:32.011Z,0
2017-09-09T04:37:12.556Z,0
2017-09-09T04:37:53.076Z,0
2017-09-09T04:38:33.601Z,0
2017-09-09T04:39:14.136Z,0
2017-09-09T04:39:54.663Z,0
2017-09-09T04:40:35.197Z,0
2017-09-09T04:41:15.731Z,0
2017-09-09T04:41:56.680Z,0
2017-09-09T04:42:37.661Z,0
2017-09-09T04:43:18.764Z,0
2017-09-09T04:43:59.856Z,0
2017-09-09T04:44:40.388Z,0
2017-09-09T04:45:21.102Z,0
2017-09-09T04:47:56.614Z,0
2017-09-09T04:48:37.136Z,0
2017-09-09T04:49:17.665Z,0
2017-09-09T04:49:58.318Z,0
2017-09-09T04:50:38.898Z,0
2017-09-09T04:51:20.182Z,0
2017-09-09T04:52:00.727Z,0
2017-09-09T04:52:41.440Z,0
2017-09-09T04:53:22.379Z,0
2017-09-09T04:54:03.145Z,0
2017-09-09T04:54:43.846Z,0
2017-09-09T04:55:24.357Z,0
2017-09-09T04:56:04.925Z,0
2017-09-09T04:56:47.950Z,0
2017-09-09T04:57:28.603Z,0
2017-09-09T04:58:09.252Z,0
2017-09-09T04:58:49.770Z,0
2017-09-09T04:59:30.290Z,0
2017-09-09T05:00:10.811Z,0
2017-09-09T05:00:51.595Z,0
2017-09-09T05:01:32.122Z,0
2017-09-09T05:02:13.109Z,0
2017-09-09T05:02:53.853Z,0
2017-09-09T05:03:34.383Z,0
2017-09-09T05:04:14.943Z,0
2017-09-09T05:04:55.476Z,0
2017-09-09T05:05:36.075Z,0
2017-09-09T05:06:16.579Z,0
2017-09-09T05:06:57.121Z,0
2017-09-09T05:07:37.923Z,0
2017-09-09T05:08:18.449Z,0
2017-09-09T05:08:58.973Z,0
2017-09-09T05:09:39.504Z,0
2017-09-09T05:10:20.092Z,0
2017-09-09T05:11:00.677Z,0
2017-09-09T05:11:41.326Z,0
2017-09-09T05:12:21.857Z,0
2017-09-09T05:13:02.584Z,0
2017-09-09T05:13:43.107Z,0
2017-09-09T05:14:23.625Z,0
2017-09-09T05:15:04.163Z,0
2017-09-09T05:15:44.690Z,0
2017-09-09T05:16:25.379Z,0
2017-09-09T05:17:05.963Z,0
2017-09-09T05:17:46.580Z,5
2017-09-09T05:18:27.216Z,5
2017-09-09T05:19:07.665Z,5
2017-09-09T05:19:48.192Z,5
2017-09-09T05:20:28.720Z,5
2017-09-09T05:21:09.239Z,5
2017-09-09T05:21:49.806Z,5
2017-09-09T05:22:30.976Z,5
2017-09-09T05:23:11.354Z,5
2017-09-09T05:23:51.885Z,5
2017-09-09T05:24:32.553Z,5
2017-09-09T05:25:13.069Z,5
2017-09-09T05:25:53.684Z,5
2017-09-09T05:26:34.219Z,10
2017-09-09T05:27:14.779Z,10
2017-09-09T05:27:55.516Z,10
2017-09-09T05:28:35.945Z,10
2017-09-09T05:29:16.492Z,10
2017-09-09T05:29:57.274Z,10
2017-09-09T05:30:37.721Z,10
2017-09-09T05:31:18.253Z,10
2017-09-09T05:31:58.801Z,10
2017-09-09T05:32:39.442Z,15
2017-09-09T05:33:19.959Z,15
2017-09-09T05:34:00.476Z,15
2017-09-09T05:34:41.107Z,15
2017-09-09T05:35:21.649Z,15
2017-09-09T05:36:02.206Z,15
2017-09-09T05:36:42.726Z,15
2017-09-09T05:37:23.329Z,15
2017-09-09T05:38:03.851Z,20
2017-09-09T05:38:44.491Z,15
2017-09-09T05:39:25.010Z,15
2017-09-09T05:40:05.531Z,15
2017-09-09T05:40:46.279Z,15
2017-09-09T05:41:26.775Z,15
2017-09-09T05:42:07.290Z,15
2017-09-09T05:42:47.824Z,15
2017-09-09T05:43:28.344Z,15
2017-09-09T05:44:08.871Z,15
2017-09-09T05:44:49.413Z,15
2017-09-09T05:45:30.401Z,15
2017-09-09T05:46:11.086Z,20
2017-09-09T05:46:51.720Z,20
2017-09-09T05:47:32.340Z,15
2017-09-09T05:48:12.951Z,15
2017-09-09T05:48:53.497Z,15
2017-09-09T05:49:34.027Z,15
2017-09-09T05:50:14.549Z,15
2017-09-09T05:50:55.068Z,20
2017-09-09T05:51:35.679Z,20
2017-09-09T05:52:16.294Z,20
2017-09-09T05:52:56.836Z,20
2017-09-09T05:53:37.396Z,20
2017-09-09T05:54:17.936Z,20
2017-09-09T05:54:58.477Z,20
2017-09-09T05:55:39.014Z,20
2017-09-09T05:56:19.609Z,25
2017-09-09T05:57:00.232Z,25
2017-09-09T05:57:40.777Z,25
2017-09-09T05:58:21.383Z,25
2017-09-09T05:59:02.246Z,30
2017-09-09T05:59:42.784Z,30
2017-09-09T06:00:23.340Z,35
2017-09-09T06:01:03.979Z,35
2017-09-09T06:01:44.502Z,35
2017-09-09T06:02:25.043Z,30
2017-09-09T06:03:05.621Z,30
2017-09-09T06:03:46.505Z,35
2017-09-09T06:04:27.020Z,35
2017-09-09T06:05:07.550Z,35
2017-09-09T06:05:48.255Z,35
2017-09-09T06:06:28.774Z,30
2017-09-09T06:07:09.303Z,30
2017-09-09T06:07:49.905Z,25
2017-09-09T06:08:30.437Z,25
2017-09-09T06:09:10.964Z,25
2017-09-09T06:09:51.584Z,25
2017-09-09T06:10:32.105Z,25
2017-09-09T06:11:12.662Z,25
2017-09-09T06:11:53.195Z,20
2017-09-09T06:12:33.734Z,20
2017-09-09T06:13:14.977Z,20
2017-09-09T06:13:55.502Z,25
2017-09-09T06:14:36.026Z,30
2017-09-09T06:15:16.555Z,25
2017-09-09T06:15:57.074Z,25
2017-09-09T06:16:37.596Z,30
2017-09-09T06:17:18.121Z,30
2017-09-09T06:17:58.778Z,30
2017-09-09T06:18:39.420Z,25
2017-09-09T06:19:19.996Z,25
2017-09-09T06:20:00.520Z,25
2017-09-09T06:20:41.046Z,25
2017-09-09T06:21:21.578Z,30
2017-09-09T06:22:02.305Z,40
2017-09-09T06:22:42.834Z,45
2017-09-09T06:23:23.452Z,40
2017-09-09T06:24:03.982Z,30
2017-09-09T06:24:44.524Z,20
2017-09-09T06:25:25.174Z,15
2017-09-09T06:26:06.520Z,15
2017-09-09T06:26:47.221Z,25
2017-09-09T06:27:27.770Z,30
2017-09-09T06:28:08.385Z,25
2017-09-09T06:28:48.988Z,25
2017-09-09T06:29:29.680Z,35
2017-09-09T06:30:10.279Z,35
2017-09-09T06:30:50.827Z,35
2017-09-09T06:31:31.388Z,35
2017-09-09T06:32:12.079Z,35
2017-09-09T06:32:52.559Z,30
2017-09-09T06:33:33.145Z,30
2017-09-09T06:34:13.669Z,30
2017-09-09T06:34:54.210Z,25
2017-09-09T06:35:34.709Z,20
2017-09-09T06:36:15.437Z,15
2017-09-09T06:36:55.994Z,15
2017-09-09T06:37:36.523Z,15
2017-09-09T06:38:17.038Z,20
2017-09-09T06:38:57.670Z,30
2017-09-09T06:39:38.355Z,35
2017-09-09T06:40:19.625Z,40
2017-09-09T06:41:00.606Z,55
2017-09-09T06:41:41.501Z,60
2017-09-09T06:42:22.396Z,65
2017-09-09T06:43:03.353Z,70
2017-09-09T06:43:44.633Z,75
2017-09-09T06:44:25.721Z,80
2017-09-09T06:45:06.618Z,85
2017-09-09T06:45:47.669Z,85
2017-09-09T06:46:28.283Z,85
2017-09-09T06:47:09.127Z,90
2017-09-09T06:47:50.199Z,95
2017-09-09T06:50:06.426Z,90
2017-09-09T06:50:46.950Z,90
2017-09-09T06:51:27.740Z,90
2017-09-09T06:52:10.186Z,95
2017-09-09T06:52:50.960Z,100
2017-09-09T06:53:31.976Z,105
2017-09-09T06:54:12.426Z,105
2017-09-09T06:54:52.955Z,105
2017-09-09T06:55:33.609Z,110
2017-09-09T06:56:14.478Z,110
2017-09-09T06:56:55.294Z,120
2017-09-09T06:57:36.171Z,120
2017-09-09T06:58:16.816Z,120
2017-09-09T06:58:57.375Z,110
2017-09-09T06:59:38.240Z,105
2017-09-09T07:00:19.870Z,105
2017-09-09T07:01:00.491Z,105
2017-09-09T07:01:41.525Z,105
2017-09-09T07:02:22.179Z,110
2017-09-09T07:03:03.564Z,115
2017-09-09T07:03:44.741Z,120
2017-09-09T07:04:25.663Z,125
2017-09-09T07:05:06.198Z,130
2017-09-09T07:05:46.943Z,135
2017-09-09T07:06:28.119Z,140
2017-09-09T07:07:08.984Z,145
2017-09-09T07:07:49.747Z,155
2017-09-09T07:08:30.281Z,155
2017-09-09T07:09:11.122Z,135
2017-09-09T07:09:51.809Z,125
2017-09-09T07:10:32.987Z,110
2017-09-09T07:11:13.610Z,105
2017-09-09T07:11:54.312Z,105
2017-09-09T07:12:35.067Z,100
2017-09-09T07:13:15.753Z,100
2017-09-09T07:13:56.467Z,100
2017-09-09T07:14:37.158Z,100
2017-09-09T07:15:17.980Z,100
2017-09-09T07:15:58.558Z,100
2017-09-09T07:16:39.230Z,100
2017-09-09T07:17:20.049Z,100
2017-09-09T07:18:01.052Z,100
2017-09-09T07:18:42.243Z,105
2017-09-09T07:19:23.118Z,105
2017-09-09T07:20:03.718Z,105
2017-09-09T07:20:44.455Z,105
2017-09-09T07:21:25.235Z,105
2017-09-09T07:22:05.999Z,105
2017-09-09T07:22:46.640Z,115
2017-09-09T07:23:27.285Z,125
2017-09-09T07:24:07.896Z,130
2017-09-09T07:24:48.611Z,135
2017-09-09T07:25:29.390Z,145
2017-09-09T07:26:10.762Z,150
2017-09-09T07:26:51.974Z,145
2017-09-09T07:27:32.764Z,130
2017-09-09T07:28:13.584Z,115
2017-09-09T07:28:54.594Z,105
2017-09-09T07:29:35.458Z,105
2017-09-09T07:30:16.530Z,110
2017-09-09T07:30:57.811Z,110
2017-09-09T07:31:39.720Z,110
2017-09-09T07:32:20.571Z,100
2017-09-09T07:33:01.591Z,90
2017-09-09T07:33:42.246Z,80
2017-09-09T07:34:23.406Z,75
2017-09-09T07:35:04.068Z,75
2017-09-09T07:35:44.645Z,70
2017-09-09T07:36:25.691Z,75
2017-09-09T07:37:06.316Z,75
2017-09-09T07:37:46.895Z,75
2017-09-09T07:38:27.532Z,75
2017-09-09T07:39:08.135Z,75
2017-09-09T07:39:53.564Z,75
2017-09-09T07:42:13.766Z,85
2017-09-09T07:42:54.364Z,85
2017-09-09T07:43:35.059Z,85
2017-09-09T07:44:15.696Z,85
2017-09-09T07:44:56.300Z,100
2017-09-09T07:45:38.119Z,110
2017-09-09T07:46:18.367Z,105
2017-09-09T07:46:59.557Z,100
2017-09-09T07:47:41.926Z,110
2017-09-09T07:48:25.476Z,135
2017-09-09T07:49:06.012Z,145
2017-09-09T07:49:46.535Z,150
2017-09-09T07:50:27.072Z,135
2017-09-09T07:51:07.596Z,140
2017-09-09T07:51:48.126Z,150
2017-09-09T07:52:28.649Z,185
2017-09-09T07:53:09.180Z,215
2017-09-09T07:53:49.699Z,275
2017-09-09T07:54:30.219Z,330
2017-09-09T07:55:10.749Z,285
2017-09-09T07:55:51.276Z,275
2017-09-09T07:56:31.815Z,225
2017-09-09T07:57:12.350Z,190
2017-09-09T07:57:52.860Z,170
2017-09-09T07:58:33.400Z,165
2017-09-09T07:59:13.920Z,160
2017-09-09T07:59:54.441Z,175
2017-09-09T08:00:34.983Z,200
2017-09-09T08:01:15.508Z,230
2017-09-09T08:01:56.037Z,260
2017-09-09T08:02:36.567Z,295
2017-09-09T08:03:17.103Z,290
2017-09-09T08:03:57.627Z,290
2017-09-09T08:04:38.172Z,335
2017-09-09T08:05:18.667Z,300
2017-09-09T08:05:59.193Z,380
2017-09-09T08:06:39.753Z,465
2017-09-09T08:07:20.250Z,725
2017-09-09T08:08:00.761Z,470
2017-09-09T08:08:41.294Z,260
2017-09-09T08:09:21.834Z,240
2017-09-09T08:10:02.365Z,290
2017-09-09T08:10:42.881Z,475
2017-09-09T08:11:23.409Z,450
2017-09-09T08:12:03.952Z,390
2017-09-09T08:12:44.486Z,310
2017-09-09T08:13:25.019Z,315
2017-09-09T08:14:05.539Z,310
2017-09-09T08:14:46.052Z,330
2017-09-09T08:15:26.591Z,375
2017-09-09T08:16:07.130Z,380
2017-09-09T08:16:47.626Z,315
2017-09-09T08:17:28.159Z,300
2017-09-09T08:18:08.694Z,275
2017-09-09T08:18:49.216Z,260
2017-09-09T08:19:29.729Z,255
2017-09-09T08:20:10.251Z,275
2017-09-09T08:20:50.770Z,280
2017-09-09T08:21:31.296Z,290
2017-09-09T08:22:11.830Z,250
2017-09-09T08:22:52.364Z,200
2017-09-09T08:23:32.916Z,150
2017-09-09T08:24:13.447Z,130
2017-09-09T08:24:53.980Z,125
2017-09-09T08:25:34.497Z,125
2017-09-09T08:26:15.073Z,105
2017-09-09T08:26:55.601Z,115
2017-09-09T08:27:36.131Z,110
2017-09-09T08:28:16.647Z,85
2017-09-09T08:28:57.167Z,85
2017-09-09T08:29:37.688Z,80
2017-09-09T08:30:18.199Z,95
2017-09-09T08:30:58.716Z,105
2017-09-09T08:31:39.248Z,110
2017-09-09T08:32:19.790Z,100
2017-09-09T08:33:00.332Z,125
2017-09-09T08:33:40.885Z,130
2017-09-09T08:34:21.386Z,150
2017-09-09T08:35:01.921Z,155
2017-09-09T08:35:42.446Z,170
2017-09-09T08:36:22.964Z,165
2017-09-09T08:37:03.521Z,185
2017-09-09T08:37:44.043Z,205
2017-09-09T08:38:24.572Z,245
2017-09-09T08:39:05.110Z,245
2017-09-09T08:39:45.635Z,245
2017-09-09T08:40:26.197Z,235
2017-09-09T08:41:06.733Z,235
2017-09-09T08:41:47.267Z,215
2017-09-09T08:42:27.790Z,210
2017-09-09T08:43:08.315Z,230
2017-09-09T08:43:48.825Z,235
2017-09-09T08:44:29.350Z,235
2017-09-09T08:45:09.850Z,255
2017-09-09T08:45:50.414Z,280
2017-09-09T08:46:30.837Z,290
2017-09-09T08:47:11.346Z,300
2017-09-09T08:47:51.826Z,325
2017-09-09T08:48:32.341Z,325
2017-09-09T08:49:12.878Z,320
2017-09-09T08:49:53.371Z,345
2017-09-09T08:50:33.877Z,350
2017-09-09T08:51:14.383Z,325
2017-09-09T08:51:54.974Z,300
2017-09-09T08:52:35.439Z,255
2017-09-09T08:53:15.954Z,260
2017-09-09T08:53:56.547Z,290
2017-09-09T08:54:37.004Z,290
2017-09-09T08:55:17.545Z,285
2017-09-09T08:55:58.069Z,255
2017-09-09T08:56:38.687Z,245
2017-09-09T08:57:19.255Z,230
2017-09-09T08:57:59.797Z,230
2017-09-09T08:58:40.258Z,260
2017-09-09T08:59:20.771Z,310
2017-09-09T09:00:01.270Z,335
2017-09-09T09:00:41.810Z,360
2017-09-09T09:01:22.311Z,410
2017-09-09T09:02:02.856Z,425
2017-09-09T09:02:43.422Z,450
2017-09-09T09:03:23.914Z,405
2017-09-09T09:04:04.454Z,390
2017-09-09T09:04:44.988Z,390
2017-09-09T09:05:25.512Z,375
2017-09-09T09:06:05.984Z,390
2017-09-09T09:06:46.519Z,460
2017-09-09T09:07:27.056Z,465
2017-09-09T09:08:07.580Z,475
2017-09-09T09:08:48.166Z,515
2017-09-09T09:09:28.749Z,555
2017-09-09T09:10:09.298Z,565
2017-09-09T09:10:49.774Z,560
2017-09-09T09:11:30.307Z,555
2017-09-09T09:12:10.910Z,565
2017-09-09T09:12:51.434Z,565
2017-09-09T09:13:31.962Z,595
2017-09-09T09:14:12.506Z,710
2017-09-09T09:14:53.023Z,640
2017-09-09T09:15:33.526Z,595
2017-09-09T09:16:14.048Z,555
2017-09-09T09:16:54.572Z,550
2017-09-09T09:17:35.088Z,510
2017-09-09T09:18:15.602Z,515
2017-09-09T09:18:56.577Z,625
2017-09-09T09:19:37.105Z,625
2017-09-09T09:20:17.662Z,950
2017-09-09T09:20:58.202Z,1035
2017-09-09T09:21:39.991Z,1115
2017-09-09T09:22:20.382Z,1070
2017-09-09T09:23:01.228Z,725
2017-09-09T09:23:42.528Z,565
2017-09-09T09:24:23.055Z,580
2017-09-09T09:25:04.302Z,570
2017-09-09T09:25:45.310Z,590
2017-09-09T09:26:26.616Z,615
2017-09-09T09:27:07.393Z,575
2017-09-09T09:27:47.803Z,505
2017-09-09T09:28:28.375Z,480
2017-09-09T09:29:09.047Z,440
2017-09-09T09:29:49.831Z,415
2017-09-09T09:30:30.382Z,370
2017-09-09T09:31:10.962Z,350
2017-09-09T09:31:52.043Z,360
2017-09-09T09:32:32.526Z,355
2017-09-09T09:33:13.167Z,340
2017-09-09T09:33:53.690Z,330
2017-09-09T09:34:34.298Z,340
2017-09-09T09:35:14.861Z,370
2017-09-09T09:35:57.183Z,445
2017-09-09T09:36:37.692Z,525
2017-09-09T09:37:19.218Z,675
2017-09-09T09:37:59.297Z,805
2017-09-09T09:38:40.431Z,645
2017-09-09T09:39:21.150Z,610
2017-09-09T09:40:01.635Z,715
2017-09-09T09:40:42.102Z,725
2017-09-09T09:41:22.865Z,665
2017-09-09T09:42:03.388Z,1915
2017-09-09T09:42:44.079Z,1910
2017-09-09T09:43:24.664Z,825
2017-09-09T09:44:05.276Z,905
2017-09-09T09:44:45.933Z,1050
2017-09-09T09:45:27.531Z,1675
2017-09-09T09:46:08.185Z,510
2017-09-09T09:46:49.247Z,345
2017-09-09T09:47:29.696Z,315
2017-09-09T09:48:10.164Z,310
2017-09-09T09:48:50.741Z,390
2017-09-09T09:49:31.271Z,400
2017-09-09T09:50:12.579Z,400
2017-09-09T09:50:54.010Z,375
2017-09-09T09:51:34.459Z,345